sensor_id;sensor_type;location;lat;lon;timestamp;pressure;altitude;pressure_sealevel;temperature;humidity
68654;BME280;55636;51.108;13.622;2023-02-12T00:00:08;102137.59;;;5.81;68.95
68654;BME280;55636;51.108;13.622;2023-02-12T00:01:17;102132.09;;;5.81;68.91
68654;BME280;55636;51.108;13.622;2023-02-12T00:02:21;102135.88;;;5.80;69.01
68654;BME280;55636;51.108;13.622;2023-02-12T00:03:23;102138.44;;;5.82;69.00
68654;BME280;55636;51.108;13.622;2023-02-12T00:04:27;102142.03;;;5.82;68.88
68654;BME280;55636;51.108;13.622;2023-02-12T00:05:30;102140.97;;;5.83;68.88
68654;BME280;55636;51.108;13.622;2023-02-12T00:06:33;102133.81;;;5.82;68.92
68654;BME280;55636;51.108;13.622;2023-02-12T00:07:36;102143.72;;;5.83;69.04
68654;BME280;55636;51.108;13.622;2023-02-12T00:08:39;102139.31;;;5.82;68.96
68654;BME280;55636;51.108;13.622;2023-02-12T00:09:46;102142.88;;;5.83;69.05
68654;BME280;55636;51.108;13.622;2023-02-12T00:10:48;102147.53;;;5.82;69.02
68654;BME280;55636;51.108;13.622;2023-02-12T00:11:50;102142.03;;;5.82;69.10
68654;BME280;55636;51.108;13.622;2023-02-12T00:12:53;102140.13;;;5.83;69.09
68654;BME280;55636;51.108;13.622;2023-02-12T00:13:56;102143.72;;;5.83;68.99
68654;BME280;55636;51.108;13.622;2023-02-12T00:14:59;102150.91;;;5.84;68.93
68654;BME280;55636;51.108;13.622;2023-02-12T00:16:06;102150.72;;;5.86;68.88
68654;BME280;55636;51.108;13.622;2023-02-12T00:17:09;102147.34;;;5.84;68.90
68654;BME280;55636;51.108;13.622;2023-02-12T00:18:13;102154.53;;;5.85;69.10
68654;BME280;55636;51.108;13.622;2023-02-12T00:19:16;102145.44;;;5.84;68.95
68654;BME280;55636;51.108;13.622;2023-02-12T00:20:18;102153.47;;;5.86;68.87
68654;BME280;55636;51.108;13.622;2023-02-12T00:21:21;102151.59;;;5.86;68.82
68654;BME280;55636;51.108;13.622;2023-02-12T00:22:25;102156.22;;;5.86;68.92
68654;BME280;55636;51.108;13.622;2023-02-12T00:23:30;102163.41;;;5.87;68.90
68654;BME280;55636;51.108;13.622;2023-02-12T00:24:32;102156.22;;;5.86;68.95
68654;BME280;55636;51.108;13.622;2023-02-12T00:25:40;102158.97;;;5.86;69.04
68654;BME280;55636;51.108;13.622;2023-02-12T00:26:44;102166.16;;;5.87;68.89
68654;BME280;55636;51.108;13.622;2023-02-12T00:27:46;102157.94;;;5.87;69.02
68654;BME280;55636;51.108;13.622;2023-02-12T00:28:49;102156.22;;;5.86;69.04
68654;BME280;55636;51.108;13.622;2023-02-12T00:29:52;102158.97;;;5.86;69.08
68654;BME280;55636;51.108;13.622;2023-02-12T00:30:54;102157.09;;;5.86;69.06
68654;BME280;55636;51.108;13.622;2023-02-12T00:31:57;102158.78;;;5.87;69.09
68654;BME280;55636;51.108;13.622;2023-02-12T00:33:01;102159.81;;;5.86;68.93
68654;BME280;55636;51.108;13.622;2023-02-12T00:34:03;102167.03;;;5.87;69.05
68654;BME280;55636;51.108;13.622;2023-02-12T00:35:06;102172.50;;;5.87;69.08
68654;BME280;55636;51.108;13.622;2023-02-12T00:36:16;102169.56;;;5.89;69.07
68654;BME280;55636;51.108;13.622;2023-02-12T00:37:19;102162.38;;;5.88;69.04
68654;BME280;55636;51.108;13.622;2023-02-12T00:38:21;102169.56;;;5.89;68.90
68654;BME280;55636;51.108;13.622;2023-02-12T00:39:23;102156.69;;;5.89;68.96
68654;BME280;55636;51.108;13.622;2023-02-12T00:40:26;102144.88;;;5.89;68.99
68654;BME280;55636;51.108;13.622;2023-02-12T00:41:28;102155.88;;;5.89;68.96
68654;BME280;55636;51.108;13.622;2023-02-12T00:42:31;102151.22;;;5.89;69.12
68654;BME280;55636;51.108;13.622;2023-02-12T00:43:33;102152.25;;;5.88;68.99
68654;BME280;55636;51.108;13.622;2023-02-12T00:44:36;102157.56;;;5.90;68.96
68654;BME280;55636;51.108;13.622;2023-02-12T00:45:38;102154.84;;;5.90;68.88
68654;BME280;55636;51.108;13.622;2023-02-12T00:46:40;102154.63;;;5.92;68.91
68654;BME280;55636;51.108;13.622;2023-02-12T00:47:43;102156.69;;;5.89;68.92
68654;BME280;55636;51.108;13.622;2023-02-12T00:48:45;102160.13;;;5.92;68.88
68654;BME280;55636;51.108;13.622;2023-02-12T00:49:49;102167.50;;;5.91;68.94
68654;BME280;55636;51.108;13.622;2023-02-12T00:50:51;102172.81;;;5.93;68.98
68654;BME280;55636;51.108;13.622;2023-02-12T00:51:53;102168.16;;;5.93;68.85
68654;BME280;55636;51.108;13.622;2023-02-12T00:52:56;102173.84;;;5.92;68.95
68654;BME280;55636;51.108;13.622;2023-02-12T00:53:59;102159.09;;;5.93;68.92
68654;BME280;55636;51.108;13.622;2023-02-12T00:55:03;102159.25;;;5.91;68.97
68654;BME280;55636;51.108;13.622;2023-02-12T00:56:06;102163.72;;;5.92;69.03
68654;BME280;55636;51.108;13.622;2023-02-12T00:57:08;102155.47;;;5.92;68.94
68654;BME280;55636;51.108;13.622;2023-02-12T00:58:13;102155.47;;;5.92;68.90
68654;BME280;55636;51.108;13.622;2023-02-12T00:59:18;102164.59;;;5.93;68.92
68654;BME280;55636;51.108;13.622;2023-02-12T01:00:22;102161.84;;;5.93;68.87
68654;BME280;55636;51.108;13.622;2023-02-12T01:01:24;102174.50;;;5.94;69.08
68654;BME280;55636;51.108;13.622;2023-02-12T01:02:26;102169.19;;;5.92;68.95
68654;BME280;55636;51.108;13.622;2023-02-12T01:03:28;102167.31;;;5.93;68.94
68654;BME280;55636;51.108;13.622;2023-02-12T01:04:33;102169.19;;;5.92;68.97
68654;BME280;55636;51.108;13.622;2023-02-12T01:05:35;102165.63;;;5.92;68.94
68654;BME280;55636;51.108;13.622;2023-02-12T01:06:38;102166.44;;;5.92;68.98
68654;BME280;55636;51.108;13.622;2023-02-12T01:07:40;102167.31;;;5.93;69.00
68654;BME280;55636;51.108;13.622;2023-02-12T01:08:42;102170.91;;;5.93;68.97
68654;BME280;55636;51.108;13.622;2023-02-12T01:09:45;102160.13;;;5.92;69.07
68654;BME280;55636;51.108;13.622;2023-02-12T01:11:00;102175.56;;;5.93;69.05
68654;BME280;55636;51.108;13.622;2023-02-12T01:12:03;102166.44;;;5.92;68.98
68654;BME280;55636;51.108;13.622;2023-02-12T01:13:06;102169.19;;;5.92;69.10
68654;BME280;55636;51.108;13.622;2023-02-12T01:14:08;102171.75;;;5.94;68.93
68654;BME280;55636;51.108;13.622;2023-02-12T01:15:12;102172.81;;;5.93;68.91
68654;BME280;55636;51.108;13.622;2023-02-12T01:16:17;102172.81;;;5.93;69.00
68654;BME280;55636;51.108;13.622;2023-02-12T01:17:26;102178.28;;;5.93;69.15
68654;BME280;55636;51.108;13.622;2023-02-12T01:18:29;102170.06;;;5.93;68.95
68654;BME280;55636;51.108;13.622;2023-02-12T01:19:31;102178.47;;;5.91;68.98
68654;BME280;55636;51.108;13.622;2023-02-12T01:20:38;102176.59;;;5.92;68.89
68654;BME280;55636;51.108;13.622;2023-02-12T01:21:40;102178.47;;;5.91;68.85
68654;BME280;55636;51.108;13.622;2023-02-12T01:22:44;102178.28;;;5.93;69.03
68654;BME280;55636;51.108;13.622;2023-02-12T01:23:48;102173.84;;;5.92;69.16
68654;BME280;55636;51.108;13.622;2023-02-12T01:24:50;102182.25;;;5.90;69.15
68654;BME280;55636;51.108;13.622;2023-02-12T01:25:53;102175.91;;;5.89;69.06
68654;BME280;55636;51.108;13.622;2023-02-12T01:26:57;102175.91;;;5.89;69.19
68654;BME280;55636;51.108;13.622;2023-02-12T01:28:02;102176.59;;;5.92;69.18
68654;BME280;55636;51.108;13.622;2023-02-12T01:29:06;102187.56;;;5.92;69.16
68654;BME280;55636;51.108;13.622;2023-02-12T01:30:11;102175.72;;;5.91;69.17
68654;BME280;55636;51.108;13.622;2023-02-12T01:31:15;102177.81;;;5.89;69.19
68654;BME280;55636;51.108;13.622;2023-02-12T01:32:18;102173.16;;;5.89;69.08
68654;BME280;55636;51.108;13.622;2023-02-12T01:33:21;102171.28;;;5.90;69.25
68654;BME280;55636;51.108;13.622;2023-02-12T01:34:23;102178.66;;;5.89;69.05
68654;BME280;55636;51.108;13.622;2023-02-12T01:35:26;102175.72;;;5.91;69.18
68654;BME280;55636;51.108;13.622;2023-02-12T01:36:30;102178.47;;;5.91;69.15
68654;BME280;55636;51.108;13.622;2023-02-12T01:37:34;102175.72;;;5.91;69.17
68654;BME280;55636;51.108;13.622;2023-02-12T01:38:39;102176.78;;;5.90;69.08
68654;BME280;55636;51.108;13.622;2023-02-12T01:39:42;102184.81;;;5.92;69.22
68654;BME280;55636;51.108;13.622;2023-02-12T01:40:44;102176.59;;;5.92;69.16
68654;BME280;55636;51.108;13.622;2023-02-12T01:41:47;102182.06;;;5.92;69.19
68654;BME280;55636;51.108;13.622;2023-02-12T01:42:49;102181.03;;;5.93;69.06
68654;BME280;55636;51.108;13.622;2023-02-12T01:44:18;102183.78;;;5.93;69.14
68654;BME280;55636;51.108;13.622;2023-02-12T01:46:24;102172.97;;;5.91;69.02
68654;BME280;55636;51.108;13.622;2023-02-12T01:47:26;102178.28;;;5.93;69.02
68654;BME280;55636;51.108;13.622;2023-02-12T01:48:33;102171.09;;;5.92;69.08
68654;BME280;55636;51.108;13.622;2023-02-12T01:49:44;102178.28;;;5.93;69.08
68654;BME280;55636;51.108;13.622;2023-02-12T01:50:49;102180.16;;;5.92;69.03
68654;BME280;55636;51.108;13.622;2023-02-12T01:52:23;102176.59;;;5.92;69.10
68654;BME280;55636;51.108;13.622;2023-02-12T01:53:32;102173.84;;;5.92;69.09
68654;BME280;55636;51.108;13.622;2023-02-12T01:54:36;102180.38;;;5.90;69.12
68654;BME280;55636;51.108;13.622;2023-02-12T01:55:38;102176.59;;;5.92;69.05
68654;BME280;55636;51.108;13.622;2023-02-12T01:56:42;102182.25;;;5.90;69.12
68654;BME280;55636;51.108;13.622;2023-02-12T01:57:46;102185.66;;;5.92;69.15
68654;BME280;55636;51.108;13.622;2023-02-12T01:58:51;102181.03;;;5.93;69.09
68654;BME280;55636;51.108;13.622;2023-02-12T01:59:55;102182.91;;;5.92;69.03
68654;BME280;55636;51.108;13.622;2023-02-12T02:01:01;102180.38;;;5.90;69.06
68654;BME280;55636;51.108;13.622;2023-02-12T02:02:05;102184.81;;;5.92;69.03
68654;BME280;55636;51.108;13.622;2023-02-12T02:03:08;102184.81;;;5.92;69.05
68654;BME280;55636;51.108;13.622;2023-02-12T02:04:14;102181.19;;;5.91;69.19
68654;BME280;55636;51.108;13.622;2023-02-12T02:05:32;102182.91;;;5.92;69.31
68654;BME280;55636;51.108;13.622;2023-02-12T02:07:03;102189.44;;;5.91;69.22
68654;BME280;55636;51.108;13.622;2023-02-12T02:08:04;102182.06;;;5.92;69.15
68654;BME280;55636;51.108;13.622;2023-02-12T02:09:06;102183.78;;;5.93;69.03
68654;BME280;55636;51.108;13.622;2023-02-12T02:10:09;102189.28;;;5.93;69.08
68654;BME280;55636;51.108;13.622;2023-02-12T02:11:12;102182.06;;;5.92;69.21
68654;BME280;55636;51.108;13.622;2023-02-12T02:12:34;102190.31;;;5.92;69.14
68654;BME280;55636;51.108;13.622;2023-02-12T02:13:56;102189.44;;;5.91;69.20
68654;BME280;55636;51.108;13.622;2023-02-12T02:15:17;102181.19;;;5.91;69.16
68654;BME280;55636;51.108;13.622;2023-02-12T02:16:24;102178.47;;;5.91;69.28
68654;BME280;55636;51.108;13.622;2023-02-12T02:23:29;102177.63;;;5.90;69.23
68654;BME280;55636;51.108;13.622;2023-02-12T02:24:44;102172.31;;;5.89;69.13
68654;BME280;55636;51.108;13.622;2023-02-12T02:28:57;102176.09;;;5.88;69.38
68654;BME280;55636;51.108;13.622;2023-02-12T02:31:41;102176.28;;;5.86;69.39
68654;BME280;55636;51.108;13.622;2023-02-12T02:34:39;102183.50;;;5.87;69.25
68654;BME280;55636;51.108;13.622;2023-02-12T02:36:13;102179.88;;;5.87;69.39
68654;BME280;55636;51.108;13.622;2023-02-12T02:37:26;102184.72;;;5.85;69.47
68654;BME280;55636;51.108;13.622;2023-02-12T02:38:52;102181.09;;;5.84;69.47
68654;BME280;55636;51.108;13.622;2023-02-12T02:40:13;102183.84;;;5.84;69.50
68654;BME280;55636;51.108;13.622;2023-02-12T02:41:35;102186.56;;;5.84;69.54
68654;BME280;55636;51.108;13.622;2023-02-12T02:42:51;102182.13;;;5.83;69.49
68654;BME280;55636;51.108;13.622;2023-02-12T02:43:55;102187.59;;;5.83;69.48
68654;BME280;55636;51.108;13.622;2023-02-12T02:45:23;102181.28;;;5.83;69.56
68654;BME280;55636;51.108;13.622;2023-02-12T02:46:33;102177.69;;;5.82;69.52
68654;BME280;55636;51.108;13.622;2023-02-12T02:47:43;102181.47;;;5.81;69.58
68654;BME280;55636;51.108;13.622;2023-02-12T02:48:51;102178.72;;;5.81;69.52
68654;BME280;55636;51.108;13.622;2023-02-12T02:50:11;102176.00;;;5.81;69.75
68654;BME280;55636;51.108;13.622;2023-02-12T02:51:18;102180.59;;;5.81;69.68
68654;BME280;55636;51.108;13.622;2023-02-12T02:52:37;102177.84;;;5.81;69.74
68654;BME280;55636;51.108;13.622;2023-02-12T02:55:05;102188.00;;;5.80;69.70
68654;BME280;55636;51.108;13.622;2023-02-12T02:56:15;102184.22;;;5.81;69.64
68654;BME280;55636;51.108;13.622;2023-02-12T02:57:25;102181.47;;;5.81;69.68
68654;BME280;55636;51.108;13.622;2023-02-12T02:58:41;102181.47;;;5.81;69.75
68654;BME280;55636;51.108;13.622;2023-02-12T02:59:48;102184.41;;;5.80;69.70
68654;BME280;55636;51.108;13.622;2023-02-12T03:01:01;102187.16;;;5.80;69.75
68654;BME280;55636;51.108;13.622;2023-02-12T03:02:11;102185.25;;;5.80;69.66
68654;BME280;55636;51.108;13.622;2023-02-12T03:03:29;102193.28;;;5.82;69.72
68654;BME280;55636;51.108;13.622;2023-02-12T03:04:40;102191.56;;;5.81;69.75
68654;BME280;55636;51.108;13.622;2023-02-12T03:05:48;102194.31;;;5.81;69.72
68654;BME280;55636;51.108;13.622;2023-02-12T03:06:57;102194.31;;;5.81;69.70
68654;BME280;55636;51.108;13.622;2023-02-12T03:08:23;102194.16;;;5.82;69.66
68654;BME280;55636;51.108;13.622;2023-02-12T03:09:35;102204.25;;;5.82;69.59
68654;BME280;55636;51.108;13.622;2023-02-12T03:10:46;102197.06;;;5.81;69.69
68654;BME280;55636;51.108;13.622;2023-02-12T03:11:53;102200.66;;;5.81;69.69
68654;BME280;55636;51.108;13.622;2023-02-12T03:13:17;102205.28;;;5.81;69.72
68654;BME280;55636;51.108;13.622;2023-02-12T03:14:45;102204.44;;;5.80;69.70
68654;BME280;55636;51.108;13.622;2023-02-12T03:15:53;102205.28;;;5.81;69.72
68654;BME280;55636;51.108;13.622;2023-02-12T03:17:15;102208.03;;;5.81;69.87
68654;BME280;55636;51.108;13.622;2023-02-12T03:18:25;102208.03;;;5.81;69.78
68654;BME280;55636;51.108;13.622;2023-02-12T03:19:36;102208.03;;;5.81;69.80
68654;BME280;55636;51.108;13.622;2023-02-12T03:20:46;102206.16;;;5.81;69.75
68654;BME280;55636;51.108;13.622;2023-02-12T03:21:56;102208.91;;;5.81;69.81
68654;BME280;55636;51.108;13.622;2023-02-12T03:23:09;102210.63;;;5.82;69.83
68654;BME280;55636;51.108;13.622;2023-02-12T03:25:51;102216.09;;;5.82;69.75
68654;BME280;55636;51.108;13.622;2023-02-12T03:28:19;102210.63;;;5.82;69.75
68654;BME280;55636;51.108;13.622;2023-02-12T03:29:23;102217.13;;;5.81;69.78
68654;BME280;55636;51.108;13.622;2023-02-12T03:30:35;102217.13;;;5.81;69.78
68654;BME280;55636;51.108;13.622;2023-02-12T03:32:59;102225.34;;;5.81;69.81
68654;BME280;55636;51.108;13.622;2023-02-12T03:34:09;102222.63;;;5.81;69.86
68654;BME280;55636;51.108;13.622;2023-02-12T03:37:03;102238.88;;;5.83;69.82
68654;BME280;55636;51.108;13.622;2023-02-12T03:38:29;102238.88;;;5.83;69.88
68654;BME280;55636;51.108;13.622;2023-02-12T03:39:46;102239.91;;;5.82;69.86
68654;BME280;55636;51.108;13.622;2023-02-12T03:41:01;102244.56;;;5.81;69.76
68654;BME280;55636;51.108;13.622;2023-02-12T03:42:11;102245.41;;;5.82;69.74
68654;BME280;55636;51.108;13.622;2023-02-12T03:43:46;102247.31;;;5.81;69.83
68654;BME280;55636;51.108;13.622;2023-02-12T03:44:55;102246.44;;;5.81;69.86
68654;BME280;55636;51.108;13.622;2023-02-12T03:46:09;102248.16;;;5.82;70.00
68654;BME280;55636;51.108;13.622;2023-02-12T03:47:25;102243.69;;;5.81;69.99
68654;BME280;55636;51.108;13.622;2023-02-12T03:48:41;102250.03;;;5.81;69.93
68654;BME280;55636;51.108;13.622;2023-02-12T03:49:52;102251.91;;;5.81;70.00
68654;BME280;55636;51.108;13.622;2023-02-12T03:52:20;102247.50;;;5.80;70.03
68654;BME280;55636;51.108;13.622;2023-02-12T03:53:24;102254.84;;;5.79;70.10
68654;BME280;55636;51.108;13.622;2023-02-12T03:54:29;102254.84;;;5.79;70.09
68654;BME280;55636;51.108;13.622;2023-02-12T03:55:39;102254.84;;;5.79;70.05
68654;BME280;55636;51.108;13.622;2023-02-12T03:56:50;102260.34;;;5.79;70.06
68654;BME280;55636;51.108;13.622;2023-02-12T03:57:58;102262.03;;;5.80;69.99
68654;BME280;55636;51.108;13.622;2023-02-12T03:59:04;102268.38;;;5.81;69.89
68654;BME280;55636;51.108;13.622;2023-02-12T04:00:16;102264.78;;;5.80;70.00
68654;BME280;55636;51.108;13.622;2023-02-12T04:01:21;102263.94;;;5.80;69.92
68654;BME280;55636;51.108;13.622;2023-02-12T04:02:23;102270.28;;;5.80;69.91
68654;BME280;55636;51.108;13.622;2023-02-12T04:03:27;102278.50;;;5.80;69.98
68654;BME280;55636;51.108;13.622;2023-02-12T04:04:31;102275.75;;;5.80;69.93
68654;BME280;55636;51.108;13.622;2023-02-12T04:05:34;102278.50;;;5.80;70.02
68654;BME280;55636;51.108;13.622;2023-02-12T04:06:40;102281.25;;;5.80;70.03
68654;BME280;55636;51.108;13.622;2023-02-12T04:07:42;102285.88;;;5.80;70.04
68654;BME280;55636;51.108;13.622;2023-02-12T04:08:44;102284.00;;;5.80;70.07
68654;BME280;55636;51.108;13.622;2023-02-12T04:09:48;102282.09;;;5.81;70.04
68654;BME280;55636;51.108;13.622;2023-02-12T04:11:33;102281.25;;;5.80;70.11
68654;BME280;55636;51.108;13.622;2023-02-12T04:12:56;102289.47;;;5.80;69.98
68654;BME280;55636;51.108;13.622;2023-02-12T04:16:56;102287.41;;;5.82;69.97
68654;BME280;55636;51.108;13.622;2023-02-12T04:18:10;102292.91;;;5.82;69.92
68654;BME280;55636;51.108;13.622;2023-02-12T04:19:21;102295.66;;;5.82;69.87
68654;BME280;55636;51.108;13.622;2023-02-12T04:22:32;102292.22;;;5.80;69.96
68654;BME280;55636;51.108;13.622;2023-02-12T04:26:51;102291.53;;;5.78;70.04
68654;BME280;55636;51.108;13.622;2023-02-12T04:28:05;102287.09;;;5.77;70.04
68654;BME280;55636;51.108;13.622;2023-02-12T04:29:20;102293.44;;;5.78;70.00
68654;BME280;55636;51.108;13.622;2023-02-12T04:30:42;102297.22;;;5.77;70.11
68654;BME280;55636;51.108;13.622;2023-02-12T04:32:59;102287.25;;;5.76;70.25
68654;BME280;55636;51.108;13.622;2023-02-12T04:34:09;102289.16;;;5.75;70.25
68654;BME280;55636;51.108;13.622;2023-02-12T04:35:27;102294.66;;;5.75;70.28
68654;BME280;55636;51.108;13.622;2023-02-12T04:36:41;102291.06;;;5.74;70.39
68654;BME280;55636;51.108;13.622;2023-02-12T04:39:11;102285.78;;;5.73;70.43
68654;BME280;55636;51.108;13.622;2023-02-12T04:40:18;102290.19;;;5.74;70.41
68654;BME280;55636;51.108;13.622;2023-02-12T04:41:21;102297.56;;;5.73;70.42
68654;BME280;55636;51.108;13.622;2023-02-12T04:42:25;102292.94;;;5.74;70.38
68654;BME280;55636;51.108;13.622;2023-02-12T04:43:33;102299.09;;;5.76;70.36
68654;BME280;55636;51.108;13.622;2023-02-12T04:44:41;102300.13;;;5.75;70.36
68654;BME280;55636;51.108;13.622;2023-02-12T04:45:44;102296.56;;;5.74;70.42
68654;BME280;55636;51.108;13.622;2023-02-12T04:46:46;102290.19;;;5.74;70.43
68654;BME280;55636;51.108;13.622;2023-02-12T04:47:49;102302.03;;;5.74;70.40
68654;BME280;55636;51.108;13.622;2023-02-12T04:48:55;102299.28;;;5.74;70.34
68654;BME280;55636;51.108;13.622;2023-02-12T04:50:00;102293.81;;;5.74;70.22
68654;BME280;55636;51.108;13.622;2023-02-12T04:51:02;102294.84;;;5.73;70.25
68654;BME280;55636;51.108;13.622;2023-02-12T04:52:06;102294.66;;;5.75;70.32
68654;BME280;55636;51.108;13.622;2023-02-12T04:53:09;102296.38;;;5.76;70.27
68654;BME280;55636;51.108;13.622;2023-02-12T04:54:13;102302.03;;;5.74;70.26
68654;BME280;55636;51.108;13.622;2023-02-12T04:55:16;102299.09;;;5.76;70.34
68654;BME280;55636;51.108;13.622;2023-02-12T04:56:18;102300.97;;;5.76;70.34
68654;BME280;55636;51.108;13.622;2023-02-12T04:57:20;102303.91;;;5.74;70.25
68654;BME280;55636;51.108;13.622;2023-02-12T04:58:23;102301.16;;;5.74;70.33
68654;BME280;55636;51.108;13.622;2023-02-12T04:59:25;102302.03;;;5.74;70.31
68654;BME280;55636;51.108;13.622;2023-02-12T05:00:27;102300.13;;;5.75;70.27
68654;BME280;55636;51.108;13.622;2023-02-12T05:01:32;102302.03;;;5.74;70.34
68654;BME280;55636;51.108;13.622;2023-02-12T05:02:36;102295.50;;;5.76;70.22
68654;BME280;55636;51.108;13.622;2023-02-12T05:03:38;102302.88;;;5.75;70.27
68654;BME280;55636;51.108;13.622;2023-02-12T05:04:48;102306.47;;;5.76;70.29
68654;BME280;55636;51.108;13.622;2023-02-12T05:05:51;102302.88;;;5.75;70.23
68654;BME280;55636;51.108;13.622;2023-02-12T05:06:53;102300.13;;;5.75;70.29
68654;BME280;55636;51.108;13.622;2023-02-12T05:07:55;102297.41;;;5.75;70.14
68654;BME280;55636;51.108;13.622;2023-02-12T05:08:58;102305.63;;;5.75;70.23
68654;BME280;55636;51.108;13.622;2023-02-12T05:10:00;102307.53;;;5.74;70.29
68654;BME280;55636;51.108;13.622;2023-02-12T05:11:04;102306.47;;;5.76;70.32
68654;BME280;55636;51.108;13.622;2023-02-12T05:12:07;102300.97;;;5.76;70.38
68654;BME280;55636;51.108;13.622;2023-02-12T05:13:10;102297.41;;;5.75;70.34
68654;BME280;55636;51.108;13.622;2023-02-12T05:14:14;102304.78;;;5.74;70.31
68654;BME280;55636;51.108;13.622;2023-02-12T05:15:16;102298.41;;;5.74;70.20
68654;BME280;55636;51.108;13.622;2023-02-12T05:16:19;102294.84;;;5.73;70.32
68654;BME280;55636;51.108;13.622;2023-02-12T05:17:22;102303.91;;;5.74;70.25
68654;BME280;55636;51.108;13.622;2023-02-12T05:18:25;102305.81;;;5.73;70.25
68654;BME280;55636;51.108;13.622;2023-02-12T05:19:27;102307.72;;;5.73;70.28
68654;BME280;55636;51.108;13.622;2023-02-12T05:20:29;102308.56;;;5.73;70.29
68654;BME280;55636;51.108;13.622;2023-02-12T05:21:31;102309.41;;;5.74;70.28
68654;BME280;55636;51.108;13.622;2023-02-12T05:22:34;102307.53;;;5.74;70.28
68654;BME280;55636;51.108;13.622;2023-02-12T05:23:38;102312.13;;;5.74;70.19
68654;BME280;55636;51.108;13.622;2023-02-12T05:24:41;102306.66;;;5.74;70.22
68654;BME280;55636;51.108;13.622;2023-02-12T05:25:43;102309.41;;;5.74;70.17
68654;BME280;55636;51.108;13.622;2023-02-12T05:26:47;102311.28;;;5.73;70.17
68654;BME280;55636;51.108;13.622;2023-02-12T05:27:50;102317.63;;;5.74;70.14
68654;BME280;55636;51.108;13.622;2023-02-12T05:28:52;102313.19;;;5.73;70.13
68654;BME280;55636;51.108;13.622;2023-02-12T05:29:54;102308.56;;;5.73;70.13
68654;BME280;55636;51.108;13.622;2023-02-12T05:31:02;102312.13;;;5.74;70.19
68654;BME280;55636;51.108;13.622;2023-02-12T05:32:06;102317.63;;;5.74;70.33
68654;BME280;55636;51.108;13.622;2023-02-12T05:33:09;102324.16;;;5.73;70.14
68654;BME280;55636;51.108;13.622;2023-02-12T05:34:12;102313.00;;;5.74;70.14
68654;BME280;55636;51.108;13.622;2023-02-12T05:35:14;102319.53;;;5.73;70.16
68654;BME280;55636;51.108;13.622;2023-02-12T05:36:19;102333.06;;;5.75;70.19
68654;BME280;55636;51.108;13.622;2023-02-12T05:37:22;102330.31;;;5.75;70.11
68654;BME280;55636;51.108;13.622;2023-02-12T05:38:24;102332.22;;;5.74;70.05
68654;BME280;55636;51.108;13.622;2023-02-12T05:39:26;102329.47;;;5.74;70.21
68654;BME280;55636;51.108;13.622;2023-02-12T05:40:29;102330.31;;;5.75;70.07
68654;BME280;55636;51.108;13.622;2023-02-12T05:41:33;102328.59;;;5.74;70.15
68654;BME280;55636;51.108;13.622;2023-02-12T05:42:36;102323.09;;;5.74;70.15
68654;BME280;55636;51.108;13.622;2023-02-12T05:43:40;102329.47;;;5.74;70.13
68654;BME280;55636;51.108;13.622;2023-02-12T05:44:42;102323.09;;;5.74;70.20
68654;BME280;55636;51.108;13.622;2023-02-12T05:45:45;102332.03;;;5.76;70.15
68654;BME280;55636;51.108;13.622;2023-02-12T05:46:47;102325.84;;;5.74;70.25
68654;BME280;55636;51.108;13.622;2023-02-12T05:47:49;102332.03;;;5.76;70.20
68654;BME280;55636;51.108;13.622;2023-02-12T05:48:52;102318.50;;;5.74;70.14
68654;BME280;55636;51.108;13.622;2023-02-12T05:49:56;102323.97;;;5.74;70.22
68654;BME280;55636;51.108;13.622;2023-02-12T05:51:19;102325.66;;;5.76;70.09
68654;BME280;55636;51.108;13.622;2023-02-12T05:52:23;102326.72;;;5.74;70.11
68654;BME280;55636;51.108;13.622;2023-02-12T05:53:25;102331.34;;;5.74;70.12
68654;BME280;55636;51.108;13.622;2023-02-12T05:54:27;102321.25;;;5.74;70.08
68654;BME280;55636;51.108;13.622;2023-02-12T05:55:29;102323.09;;;5.74;70.07
68654;BME280;55636;51.108;13.622;2023-02-12T05:56:34;102316.78;;;5.73;70.09
68654;BME280;55636;51.108;13.622;2023-02-12T05:57:37;102323.97;;;5.74;70.14
68654;BME280;55636;51.108;13.622;2023-02-12T05:58:40;102331.34;;;5.74;70.02
68654;BME280;55636;51.108;13.622;2023-02-12T05:59:43;102319.53;;;5.73;70.06
68654;BME280;55636;51.108;13.622;2023-02-12T06:00:45;102319.53;;;5.73;70.09
68654;BME280;55636;51.108;13.622;2023-02-12T06:01:49;102329.47;;;5.74;70.02
68654;BME280;55636;51.108;13.622;2023-02-12T06:02:54;102329.66;;;5.73;70.06
68654;BME280;55636;51.108;13.622;2023-02-12T06:03:57;102326.91;;;5.73;69.99
68654;BME280;55636;51.108;13.622;2023-02-12T06:05:00;102331.53;;;5.72;70.09
68654;BME280;55636;51.108;13.622;2023-02-12T06:06:03;102335.13;;;5.73;69.95
68654;BME280;55636;51.108;13.622;2023-02-12T06:07:05;102329.81;;;5.71;69.98
68654;BME280;55636;51.108;13.622;2023-02-12T06:08:08;102338.03;;;5.71;69.94
68654;BME280;55636;51.108;13.622;2023-02-12T06:09:12;102331.72;;;5.71;70.00
68654;BME280;55636;51.108;13.622;2023-02-12T06:10:15;102338.03;;;5.71;69.90
68654;BME280;55636;51.108;13.622;2023-02-12T06:11:18;102341.66;;;5.72;70.10
68654;BME280;55636;51.108;13.622;2023-02-12T06:12:21;102338.03;;;5.71;69.84
68654;BME280;55636;51.108;13.622;2023-02-12T06:13:24;102338.22;;;5.70;69.85
68654;BME280;55636;51.108;13.622;2023-02-12T06:14:26;102342.88;;;5.69;69.81
68654;BME280;55636;51.108;13.622;2023-02-12T06:15:35;102343.72;;;5.70;69.85
68654;BME280;55636;51.108;13.622;2023-02-12T06:16:44;102351.94;;;5.70;69.92
68654;BME280;55636;51.108;13.622;2023-02-12T06:17:50;102350.22;;;5.69;69.83
68654;BME280;55636;51.108;13.622;2023-02-12T06:18:54;102352.97;;;5.69;69.87
68654;BME280;55636;51.108;13.622;2023-02-12T06:19:56;102352.13;;;5.68;69.96
68654;BME280;55636;51.108;13.622;2023-02-12T06:21:02;102349.19;;;5.70;69.94